createdAt,value
2023-03-16T00:00:32.954Z,1.90
2023-03-16T00:03:36.675Z,1.80
2023-03-16T00:06:39.356Z,1.52
2023-03-16T00:09:42.128Z,1.77
2023-03-16T00:12:45.188Z,1.55
2023-03-16T00:15:55.984Z,1.40
2023-03-16T00:18:59.354Z,1.60
2023-03-16T00:22:02.425Z,1.80
2023-03-16T00:25:05.499Z,1.70
2023-03-16T00:28:08.276Z,1.70
2023-03-16T00:31:12.137Z,1.90
2023-03-16T00:34:15.540Z,1.60
2023-03-16T00:37:19.970Z,1.75
2023-03-16T00:40:22.554Z,1.42
2023-03-16T00:43:27.440Z,1.48
2023-03-16T00:46:30.071Z,1.52
2023-03-16T00:49:35.003Z,1.60
2023-03-16T00:52:37.632Z,1.23
2023-03-16T00:55:40.291Z,1.80
2023-03-16T00:58:43.936Z,1.70
2023-03-16T01:01:47.042Z,1.88
2023-03-16T01:04:51.989Z,1.67
2023-03-16T01:07:54.529Z,1.58
2023-03-16T01:11:05.712Z,1.80
2023-03-16T01:14:08.929Z,1.83
2023-03-16T01:17:13.976Z,1.67
2023-03-16T01:20:19.600Z,1.80
2023-03-16T01:23:22.744Z,1.80
2023-03-16T01:26:25.966Z,1.90
2023-03-16T01:29:28.725Z,1.75
2023-03-16T01:32:34.335Z,1.80
2023-03-16T01:35:37.024Z,2.03
2023-03-16T01:38:39.929Z,1.75
2023-03-16T01:41:43.813Z,2.15
2023-03-16T01:44:55.737Z,1.80
2023-03-16T01:48:02.490Z,1.85
2023-03-16T01:51:31.334Z,1.83
2023-03-16T01:54:40.930Z,2.00
2023-03-16T01:57:48.338Z,1.90
2023-03-16T02:00:51.128Z,1.90
2023-03-16T02:04:16.738Z,2.00
2023-03-16T02:07:24.814Z,1.97
2023-03-16T02:10:29.320Z,1.90
2023-03-16T02:13:36.802Z,1.80
2023-03-16T02:16:41.721Z,1.80
2023-03-16T02:19:49.708Z,2.10
2023-03-16T02:22:54.512Z,1.80
2023-03-16T02:26:01.583Z,1.75
2023-03-16T02:29:45.491Z,1.80
2023-03-16T02:32:51.645Z,1.88
2023-03-16T02:35:54.404Z,2.00
2023-03-16T02:38:57.999Z,1.90
2023-03-16T02:42:03.310Z,1.70
2023-03-16T02:45:06.779Z,2.00
2023-03-16T02:48:20.218Z,1.98
2023-03-16T02:51:22.916Z,2.00
2023-03-16T02:54:25.609Z,2.03
2023-03-16T02:57:28.718Z,1.75
2023-03-16T03:00:35.651Z,2.50
2023-03-16T03:03:38.414Z,1.90
2023-03-16T03:06:41.864Z,1.90
2023-03-16T03:09:44.793Z,2.07
2023-03-16T03:12:49.632Z,2.25
2023-03-16T03:15:52.863Z,2.30
2023-03-16T03:18:59.200Z,2.08
2023-03-16T03:22:06.562Z,2.30
2023-03-16T03:25:09.483Z,1.70
2023-03-16T03:28:12.200Z,2.20
2023-03-16T03:31:21.484Z,1.90
2023-03-16T03:34:24.170Z,1.90
2023-03-16T03:37:27.041Z,2.30
2023-03-16T03:40:30.668Z,1.90
2023-03-16T03:43:37.027Z,2.08
2023-03-16T03:46:40.173Z,2.00
2023-03-16T03:49:43.294Z,2.03
2023-03-16T03:52:46.933Z,2.40
2023-03-16T03:55:50.029Z,2.27
2023-03-16T03:58:53.727Z,2.25
2023-03-16T04:02:10.550Z,2.33
2023-03-16T04:05:18.960Z,2.08
2023-03-16T04:08:21.860Z,2.30
2023-03-16T04:11:24.793Z,2.30
2023-03-16T04:14:29.212Z,2.00
2023-03-16T04:17:34.475Z,2.10
2023-03-16T04:20:40.377Z,2.10
2023-03-16T04:23:44.213Z,2.00
2023-03-16T04:26:47.532Z,1.90
2023-03-16T04:29:50.766Z,2.20
2023-03-16T04:32:53.723Z,2.35
2023-03-16T04:35:58.624Z,2.47
2023-03-16T04:39:04.772Z,2.17
2023-03-16T04:42:07.445Z,1.90
2023-03-16T04:45:11.253Z,2.30
2023-03-16T04:48:15.272Z,2.35
2023-03-16T04:51:19.051Z,2.30
2023-03-16T04:54:35.829Z,2.25
2023-03-16T04:57:39.009Z,2.10
2023-03-16T05:00:41.774Z,2.58
2023-03-16T05:03:53.054Z,2.10
2023-03-16T05:06:56.155Z,2.20
2023-03-16T05:10:04.990Z,2.35
2023-03-16T05:13:08.249Z,2.33
2023-03-16T05:16:11.233Z,2.38
2023-03-16T05:19:16.274Z,2.28
2023-03-16T05:22:19.802Z,2.60
2023-03-16T05:25:40.511Z,2.60
2023-03-16T05:28:46.097Z,2.03
2023-03-16T05:31:52.318Z,2.17
2023-03-16T05:34:58.712Z,2.42
2023-03-16T05:38:01.871Z,2.45
2023-03-16T05:41:07.445Z,2.47
2023-03-16T05:44:20.142Z,2.33
2023-03-16T05:47:47.320Z,2.55
2023-03-16T05:50:50.998Z,2.20
2023-03-16T05:53:57.120Z,2.40
2023-03-16T05:57:16.331Z,2.45
2023-03-16T06:00:21.659Z,2.50
2023-03-16T06:03:33.779Z,2.33
2023-03-16T06:06:37.273Z,2.63
2023-03-16T06:09:50.877Z,2.20
2023-03-16T06:12:53.680Z,2.30
2023-03-16T06:15:57.198Z,2.20
2023-03-16T06:19:01.122Z,2.17
2023-03-16T06:22:05.927Z,2.40
2023-03-16T06:25:10.565Z,2.17
2023-03-16T06:28:14.484Z,2.22
2023-03-16T06:31:17.378Z,2.33
2023-03-16T06:34:22.967Z,2.28
2023-03-16T06:37:25.993Z,2.50
2023-03-16T06:40:30.098Z,2.80
2023-03-16T06:43:35.017Z,2.50
2023-03-16T06:46:38.649Z,2.80
2023-03-16T06:49:43.251Z,2.60
2023-03-16T06:52:54.240Z,2.15
2023-03-16T06:55:56.980Z,2.33
2023-03-16T06:59:01.768Z,2.45
2023-03-16T07:02:04.954Z,2.33
2023-03-16T07:05:08.846Z,2.40
2023-03-16T07:08:12.166Z,2.38
2023-03-16T07:11:18.069Z,2.28
2023-03-16T07:14:27.466Z,2.45
2023-03-16T07:17:33.768Z,2.20
2023-03-16T07:20:39.179Z,2.38
2023-03-16T07:23:42.912Z,2.38
2023-03-16T07:26:46.688Z,2.45
2023-03-16T07:30:00.057Z,2.47
2023-03-16T07:33:07.878Z,2.30
2023-03-16T07:36:11.127Z,2.33
2023-03-16T07:39:19.854Z,2.78
2023-03-16T07:42:23.558Z,2.47
2023-03-16T07:45:47.092Z,2.47
2023-03-16T07:48:53.968Z,2.30
2023-03-16T07:51:57.491Z,2.35
2023-03-16T07:55:07.556Z,2.30
2023-03-16T07:58:11.282Z,2.33
2023-03-16T08:01:19.784Z,3.00
2023-03-16T08:04:29.998Z,2.60
2023-03-16T08:07:40.428Z,2.20
2023-03-16T08:10:53.189Z,2.40
2023-03-16T08:14:00.555Z,2.50
2023-03-16T08:17:19.306Z,2.15
2023-03-16T08:20:24.484Z,2.20
2023-03-16T08:23:30.818Z,2.05
2023-03-16T08:26:33.787Z,2.17
2023-03-16T08:29:37.951Z,2.20
2023-03-16T08:32:43.497Z,2.08
2023-03-16T08:35:48.021Z,2.23
2023-03-16T08:39:06.197Z,2.10
2023-03-16T08:42:16.852Z,2.20
2023-03-16T08:45:24.403Z,2.20
2023-03-16T08:48:45.523Z,2.20
2023-03-16T08:51:51.344Z,2.30
2023-03-16T08:55:03.127Z,2.25
2023-03-16T08:58:06.962Z,2.63
2023-03-16T09:01:10.214Z,3.20
2023-03-16T09:04:13.987Z,2.60
2023-03-16T09:07:19.512Z,2.53
2023-03-16T09:10:28.006Z,2.33
2023-03-16T09:13:33.959Z,2.55
2023-03-16T09:16:38.791Z,2.60
2023-03-16T09:19:52.019Z,2.30
2023-03-16T09:22:56.742Z,2.23
2023-03-16T09:26:01.839Z,2.47
2023-03-16T09:29:06.972Z,2.38
2023-03-16T09:32:10.339Z,2.28
2023-03-16T09:35:14.770Z,2.45
2023-03-16T09:38:19.222Z,2.40
2023-03-16T09:41:39.555Z,2.15
2023-03-16T09:45:06.720Z,2.10
2023-03-16T09:48:10.883Z,2.33
2023-03-16T09:51:59.042Z,2.60
2023-03-16T09:55:28.407Z,2.80
2023-03-16T09:58:36.988Z,1.98
2023-03-16T10:01:56.156Z,2.10
2023-03-16T10:05:23.058Z,2.13
2023-03-16T10:08:38.042Z,2.00
2023-03-16T10:11:50.129Z,2.10
2023-03-16T10:15:04.775Z,2.00
2023-03-16T10:18:18.645Z,2.47
2023-03-16T10:21:21.499Z,2.80
2023-03-16T10:25:01.367Z,2.20
2023-03-16T10:28:07.841Z,2.10
2023-03-16T10:31:12.240Z,2.40
2023-03-16T10:34:15.450Z,2.45
2023-03-16T10:37:19.054Z,2.05
2023-03-16T10:40:22.302Z,1.98
2023-03-16T10:43:29.289Z,2.23
2023-03-16T10:46:39.572Z,2.13
2023-03-16T10:49:49.054Z,2.38
2023-03-16T10:52:57.111Z,2.25
2023-03-16T10:56:12.535Z,2.22
2023-03-16T10:59:25.887Z,2.50
2023-03-16T11:02:37.660Z,1.75
2023-03-16T11:05:40.238Z,2.22
2023-03-16T11:08:42.875Z,2.10
2023-03-16T11:11:50.011Z,2.25
2023-03-16T11:14:54.445Z,2.40
2023-03-16T11:17:59.081Z,2.90
2023-03-16T11:21:26.440Z,2.65
2023-03-16T11:25:00.954Z,2.42
2023-03-16T11:28:26.118Z,2.80
2023-03-16T11:32:07.497Z,2.40
2023-03-16T11:35:17.989Z,2.60
2023-03-16T11:38:22.826Z,2.30
2023-03-16T11:41:47.295Z,2.35
2023-03-16T11:45:15.471Z,2.20
2023-03-16T11:48:27.864Z,2.60
2023-03-16T11:51:48.939Z,2.20
2023-03-16T11:55:24.754Z,2.45
2023-03-16T11:58:54.909Z,2.30
2023-03-16T12:02:25.377Z,2.08
2023-03-16T12:05:47.465Z,2.00
2023-03-16T12:09:00.796Z,2.30
2023-03-16T12:12:22.336Z,2.30
2023-03-16T12:15:45.051Z,2.08
2023-03-16T12:18:54.558Z,2.65
2023-03-16T12:22:08.601Z,2.03
2023-03-16T12:25:32.606Z,2.03
2023-03-16T12:28:38.129Z,2.10
2023-03-16T12:32:08.760Z,2.30
2023-03-16T12:35:27.997Z,2.25
2023-03-16T12:38:48.637Z,1.90
2023-03-16T12:42:08.840Z,2.17
2023-03-16T12:45:27.729Z,2.00
2023-03-16T12:48:46.562Z,2.03
2023-03-16T12:52:05.619Z,2.22
2023-03-16T12:55:22.902Z,2.20
2023-03-16T12:58:27.674Z,2.13
2023-03-16T13:02:08.339Z,2.47
2023-03-16T13:05:31.477Z,2.50
2023-03-16T13:08:47.644Z,2.60
2023-03-16T13:12:06.923Z,2.27
2023-03-16T13:15:27.729Z,2.30
2023-03-16T13:18:40.285Z,2.80
2023-03-16T13:21:43.565Z,2.22
2023-03-16T13:24:56.190Z,2.17
2023-03-16T13:28:00.767Z,2.40
2023-03-16T13:31:04.945Z,2.33
2023-03-16T13:34:15.395Z,2.35
2023-03-16T13:37:20.614Z,2.17
2023-03-16T13:40:27.941Z,2.42
2023-03-16T13:43:33.174Z,2.17
2023-03-16T13:46:36.425Z,2.20
2023-03-16T13:49:58.379Z,2.30
2023-03-16T13:53:04.505Z,2.40
2023-03-16T13:56:14.304Z,2.53
2023-03-16T13:59:17.947Z,2.40
2023-03-16T14:02:23.303Z,2.35
2023-03-16T14:05:33.340Z,2.58
2023-03-16T14:08:36.184Z,2.50
2023-03-16T14:11:38.885Z,2.60
2023-03-16T14:14:42.564Z,2.30
2023-03-16T14:17:48.290Z,2.38
2023-03-16T14:20:53.738Z,2.50
2023-03-16T14:24:09.531Z,2.20
2023-03-16T14:27:28.451Z,2.45
2023-03-16T14:30:32.382Z,2.07
2023-03-16T14:33:40.128Z,2.65
2023-03-16T14:36:42.735Z,2.50
2023-03-16T14:39:46.958Z,3.00
2023-03-16T14:42:50.686Z,2.95
2023-03-16T14:45:55.283Z,2.43
2023-03-16T14:49:06.565Z,2.17
2023-03-16T14:52:33.786Z,2.40
2023-03-16T14:55:37.739Z,2.70
2023-03-16T14:58:41.534Z,2.60
2023-03-16T15:01:45.379Z,2.50
2023-03-16T15:04:48.994Z,2.95
2023-03-16T15:07:55.795Z,2.85
2023-03-16T15:11:03.105Z,2.60
2023-03-16T15:14:37.124Z,2.92
2023-03-16T15:17:39.717Z,2.23
2023-03-16T15:20:44.778Z,2.33
2023-03-16T15:23:48.177Z,2.28
2023-03-16T15:26:52.208Z,2.47
2023-03-16T15:29:54.842Z,2.70
2023-03-16T15:32:58.665Z,2.50
2023-03-16T15:36:07.191Z,2.30
2023-03-16T15:39:25.287Z,2.35
2023-03-16T15:42:27.830Z,2.30
2023-03-16T15:45:30.879Z,2.50
2023-03-16T15:48:34.042Z,2.10
2023-03-16T15:51:36.980Z,2.40
2023-03-16T15:54:39.631Z,2.20
2023-03-16T15:57:42.204Z,2.42
2023-03-16T16:00:47.117Z,2.10
2023-03-16T16:03:51.898Z,2.10
2023-03-16T16:06:55.538Z,2.97
2023-03-16T16:09:58.529Z,2.78
2023-03-16T16:13:01.875Z,2.70
2023-03-16T16:16:04.844Z,2.67
2023-03-16T16:19:14.090Z,2.70
2023-03-16T16:22:16.674Z,2.40
2023-03-16T16:25:22.251Z,2.60
2023-03-16T16:28:29.341Z,2.60
2023-03-16T16:31:32.176Z,2.65
2023-03-16T16:34:35.116Z,2.43
2023-03-16T16:37:38.134Z,3.28
2023-03-16T16:40:46.244Z,2.65
2023-03-16T16:43:49.232Z,3.08
2023-03-16T16:46:53.774Z,2.65
2023-03-16T16:49:57.145Z,2.40
2023-03-16T16:52:59.841Z,2.72
2023-03-16T16:56:03.000Z,2.30
2023-03-16T16:59:18.360Z,2.22
2023-03-16T17:02:23.068Z,2.58
2023-03-16T17:05:28.706Z,2.63
2023-03-16T17:08:32.487Z,2.50
2023-03-16T17:11:37.168Z,2.70
2023-03-16T17:14:41.612Z,2.10
2023-03-16T17:17:44.914Z,2.13
2023-03-16T17:20:48.457Z,2.30
2023-03-16T17:23:55.058Z,2.40
2023-03-16T17:27:00.716Z,2.40
2023-03-16T17:30:04.908Z,2.78
2023-03-16T17:33:13.997Z,2.63
2023-03-16T17:36:19.676Z,2.50
2023-03-16T17:39:25.742Z,2.78
2023-03-16T17:42:29.555Z,2.72
2023-03-16T17:45:36.167Z,2.55
2023-03-16T17:48:40.835Z,2.70
2023-03-16T17:51:46.020Z,2.53
2023-03-16T17:54:51.046Z,2.53
2023-03-16T17:57:56.289Z,2.45
2023-03-16T18:01:01.936Z,2.60
2023-03-16T18:04:16.100Z,2.30
2023-03-16T18:07:20.235Z,2.57
2023-03-16T18:10:28.970Z,2.60
2023-03-16T18:13:35.627Z,2.50
2023-03-16T18:16:39.719Z,2.58
2023-03-16T18:19:44.574Z,2.33
2023-03-16T18:22:51.424Z,2.40
2023-03-16T18:25:57.760Z,2.78
2023-03-16T18:29:04.470Z,2.60
2023-03-16T18:32:27.924Z,2.30
2023-03-16T18:35:33.930Z,2.47
2023-03-16T18:38:43.080Z,2.40
2023-03-16T18:41:50.396Z,2.40
2023-03-16T18:44:54.587Z,2.60
2023-03-16T18:47:58.790Z,2.60
2023-03-16T18:51:03.355Z,2.40
2023-03-16T18:54:22.220Z,2.43
2023-03-16T18:57:30.061Z,2.30
2023-03-16T19:00:37.426Z,2.50
2023-03-16T19:03:44.698Z,2.45
2023-03-16T19:06:50.431Z,2.40
2023-03-16T19:09:54.282Z,2.80
2023-03-16T19:12:58.210Z,2.35
2023-03-16T19:16:11.193Z,2.90
2023-03-16T19:19:16.284Z,2.35
2023-03-16T19:22:22.013Z,2.55
2023-03-16T19:25:31.509Z,2.47
2023-03-16T19:28:40.699Z,2.50
2023-03-16T19:31:45.442Z,2.67
2023-03-16T19:34:51.131Z,2.47
2023-03-16T19:37:55.441Z,2.72
2023-03-16T19:41:00.789Z,2.90
2023-03-16T19:44:12.868Z,2.30
2023-03-16T19:47:37.941Z,2.38
2023-03-16T19:50:42.535Z,2.30
2023-03-16T19:53:47.051Z,2.75
2023-03-16T19:56:51.954Z,2.40
2023-03-16T19:59:58.198Z,2.80
2023-03-16T20:03:02.421Z,2.47
2023-03-16T20:06:06.463Z,2.47
2023-03-16T20:09:10.467Z,2.47
2023-03-16T20:12:29.345Z,2.60
2023-03-16T20:15:33.647Z,2.33
2023-03-16T20:18:37.593Z,2.40
2023-03-16T20:21:41.401Z,2.33
2023-03-16T20:24:46.333Z,2.45
2023-03-16T20:27:56.768Z,2.20
2023-03-16T20:31:01.362Z,2.33
2023-03-16T20:34:26.411Z,2.30
2023-03-16T20:37:31.343Z,2.13
2023-03-16T20:40:38.868Z,2.60
2023-03-16T20:43:43.033Z,2.10
2023-03-16T20:46:49.321Z,2.75
2023-03-16T20:49:56.629Z,1.98
2023-03-16T20:53:00.297Z,2.30
2023-03-16T20:56:05.145Z,2.70
2023-03-16T20:59:19.453Z,2.00
2023-03-16T21:02:36.214Z,2.03
2023-03-16T21:05:40.427Z,2.22
2023-03-16T21:08:43.294Z,2.30
2023-03-16T21:11:47.160Z,3.25
2023-03-16T21:14:51.077Z,2.10
2023-03-16T21:18:06.722Z,2.42
2023-03-16T21:21:17.840Z,2.10
2023-03-16T21:24:22.738Z,2.50
2023-03-16T21:27:30.776Z,2.25
2023-03-16T21:30:40.070Z,2.20
2023-03-16T21:33:44.345Z,2.42
2023-03-16T21:36:47.325Z,2.45
2023-03-16T21:39:51.901Z,2.10
2023-03-16T21:42:54.532Z,2.10
2023-03-16T21:45:57.529Z,2.33
2023-03-16T21:49:00.323Z,2.17
2023-03-16T21:52:03.265Z,2.28
2023-03-16T21:55:06.578Z,2.58
2023-03-16T21:58:09.612Z,2.25
2023-03-16T22:01:31.625Z,2.40
2023-03-16T22:04:34.357Z,2.38
2023-03-16T22:07:37.183Z,2.22
2023-03-16T22:10:42.075Z,2.20
2023-03-16T22:13:46.576Z,2.40
2023-03-16T22:16:49.646Z,2.47
2023-03-16T22:19:53.159Z,2.28
2023-03-16T22:22:56.316Z,2.20
2023-03-16T22:25:59.364Z,2.30
2023-03-16T22:29:02.210Z,2.40
2023-03-16T22:32:10.114Z,2.50
2023-03-16T22:35:35.745Z,2.53
2023-03-16T22:38:40.185Z,2.70
2023-03-16T22:41:42.774Z,2.55
2023-03-16T22:44:45.574Z,2.47
2023-03-16T22:47:48.178Z,2.53
2023-03-16T22:50:51.222Z,2.25
2023-03-16T22:53:59.768Z,1.88
2023-03-16T22:57:02.507Z,2.50
2023-03-16T23:00:07.981Z,2.60
2023-03-16T23:03:17.323Z,2.43
2023-03-16T23:06:25.346Z,2.28
2023-03-16T23:09:29.004Z,2.45
2023-03-16T23:12:32.215Z,2.42
2023-03-16T23:15:37.098Z,2.53
2023-03-16T23:18:39.734Z,2.60
2023-03-16T23:21:42.388Z,2.47
2023-03-16T23:24:46.159Z,2.47
2023-03-16T23:27:51.475Z,2.60
2023-03-16T23:30:54.309Z,2.60
2023-03-16T23:33:57.278Z,2.43
2023-03-16T23:36:59.883Z,2.40
2023-03-16T23:40:04.021Z,2.53
2023-03-16T23:43:08.148Z,2.33
2023-03-16T23:46:12.462Z,2.63
2023-03-16T23:49:22.291Z,2.23
2023-03-16T23:52:24.933Z,2.90
2023-03-16T23:55:28.458Z,2.22
2023-03-16T23:58:30.991Z,2.60
